sensor_id;sensor_type;location;lat;lon;timestamp;P1;durP1;ratioP1;P2;durP2;ratioP2
16878;SDS011;8556;52.218;9.884;2022-07-22T00:00:12;8.75;;;7.85;;
16878;SDS011;8556;52.218;9.884;2022-07-22T00:02:40;9.63;;;8.07;;
16878;SDS011;8556;52.218;9.884;2022-07-22T00:05:08;9.93;;;8.07;;
16878;SDS011;8556;52.218;9.884;2022-07-22T00:07:36;10.10;;;8.13;;
16878;SDS011;8556;52.218;9.884;2022-07-22T00:10:03;11.20;;;8.20;;
16878;SDS011;8556;52.218;9.884;2022-07-22T00:12:32;9.60;;;8.32;;
16878;SDS011;8556;52.218;9.884;2022-07-22T00:15:00;12.80;;;8.48;;
16878;SDS011;8556;52.218;9.884;2022-07-22T00:17:26;10.10;;;8.60;;
16878;SDS011;8556;52.218;9.884;2022-07-22T00:19:53;10.52;;;9.02;;
16878;SDS011;8556;52.218;9.884;2022-07-22T00:22:20;9.35;;;8.25;;
16878;SDS011;8556;52.218;9.884;2022-07-22T00:24:47;10.82;;;8.45;;
16878;SDS011;8556;52.218;9.884;2022-07-22T00:27:14;11.45;;;8.45;;
16878;SDS011;8556;52.218;9.884;2022-07-22T00:29:42;10.77;;;8.13;;
16878;SDS011;8556;52.218;9.884;2022-07-22T00:32:09;10.00;;;8.68;;
16878;SDS011;8556;52.218;9.884;2022-07-22T00:34:35;10.02;;;8.73;;
16878;SDS011;8556;52.218;9.884;2022-07-22T00:37:02;13.27;;;8.80;;
16878;SDS011;8556;52.218;9.884;2022-07-22T00:39:30;9.98;;;7.95;;
16878;SDS011;8556;52.218;9.884;2022-07-22T00:41:56;10.57;;;8.82;;
16878;SDS011;8556;52.218;9.884;2022-07-22T00:44:24;10.20;;;7.95;;
16878;SDS011;8556;52.218;9.884;2022-07-22T00:46:53;8.60;;;7.35;;
16878;SDS011;8556;52.218;9.884;2022-07-22T00:49:20;9.98;;;7.75;;
16878;SDS011;8556;52.218;9.884;2022-07-22T00:51:47;8.75;;;7.15;;
16878;SDS011;8556;52.218;9.884;2022-07-22T00:54:14;7.97;;;7.18;;
16878;SDS011;8556;52.218;9.884;2022-07-22T00:56:41;11.00;;;7.30;;
16878;SDS011;8556;52.218;9.884;2022-07-22T00:59:09;8.63;;;7.45;;
16878;SDS011;8556;52.218;9.884;2022-07-22T01:01:37;10.07;;;7.50;;
16878;SDS011;8556;52.218;9.884;2022-07-22T01:04:05;10.73;;;8.48;;
16878;SDS011;8556;52.218;9.884;2022-07-22T01:06:33;13.25;;;10.13;;
16878;SDS011;8556;52.218;9.884;2022-07-22T01:08:59;11.95;;;9.60;;
16878;SDS011;8556;52.218;9.884;2022-07-22T01:11:26;11.50;;;9.70;;
16878;SDS011;8556;52.218;9.884;2022-07-22T01:13:54;11.82;;;9.13;;
16878;SDS011;8556;52.218;9.884;2022-07-22T01:16:23;10.63;;;8.93;;
16878;SDS011;8556;52.218;9.884;2022-07-22T01:18:50;16.63;;;9.52;;
16878;SDS011;8556;52.218;9.884;2022-07-22T01:21:18;9.70;;;8.70;;
16878;SDS011;8556;52.218;9.884;2022-07-22T01:23:45;11.55;;;8.80;;
16878;SDS011;8556;52.218;9.884;2022-07-22T01:26:13;10.50;;;9.30;;
16878;SDS011;8556;52.218;9.884;2022-07-22T01:28:40;11.43;;;9.20;;
16878;SDS011;8556;52.218;9.884;2022-07-22T01:31:07;12.10;;;9.95;;
16878;SDS011;8556;52.218;9.884;2022-07-22T01:33:34;13.63;;;10.18;;
16878;SDS011;8556;52.218;9.884;2022-07-22T01:36:02;13.40;;;10.90;;
16878;SDS011;8556;52.218;9.884;2022-07-22T01:38:31;12.45;;;10.32;;
16878;SDS011;8556;52.218;9.884;2022-07-22T01:40:58;12.52;;;10.30;;
16878;SDS011;8556;52.218;9.884;2022-07-22T01:43:25;13.13;;;10.93;;
16878;SDS011;8556;52.218;9.884;2022-07-22T01:45:52;12.65;;;10.73;;
16878;SDS011;8556;52.218;9.884;2022-07-22T01:48:20;13.50;;;11.25;;
16878;SDS011;8556;52.218;9.884;2022-07-22T01:50:47;13.77;;;10.95;;
16878;SDS011;8556;52.218;9.884;2022-07-22T01:53:14;15.02;;;12.25;;
16878;SDS011;8556;52.218;9.884;2022-07-22T01:55:43;13.40;;;10.77;;
16878;SDS011;8556;52.218;9.884;2022-07-22T01:58:10;14.93;;;11.48;;
16878;SDS011;8556;52.218;9.884;2022-07-22T02:00:37;15.35;;;11.95;;
16878;SDS011;8556;52.218;9.884;2022-07-22T02:03:04;16.40;;;12.30;;
16878;SDS011;8556;52.218;9.884;2022-07-22T02:05:31;17.80;;;13.10;;
16878;SDS011;8556;52.218;9.884;2022-07-22T02:07:59;18.77;;;13.23;;
16878;SDS011;8556;52.218;9.884;2022-07-22T02:10:26;18.95;;;13.38;;
16878;SDS011;8556;52.218;9.884;2022-07-22T02:12:57;17.58;;;12.75;;
16878;SDS011;8556;52.218;9.884;2022-07-22T02:15:25;18.70;;;13.75;;
16878;SDS011;8556;52.218;9.884;2022-07-22T02:17:52;20.67;;;14.57;;
16878;SDS011;8556;52.218;9.884;2022-07-22T02:20:19;19.50;;;13.60;;
16878;SDS011;8556;52.218;9.884;2022-07-22T02:22:46;18.85;;;14.13;;
16878;SDS011;8556;52.218;9.884;2022-07-22T02:25:13;19.05;;;13.77;;
16878;SDS011;8556;52.218;9.884;2022-07-22T02:27:40;19.48;;;14.32;;
16878;SDS011;8556;52.218;9.884;2022-07-22T02:30:10;16.23;;;12.63;;
16878;SDS011;8556;52.218;9.884;2022-07-22T02:32:37;15.27;;;11.57;;
16878;SDS011;8556;52.218;9.884;2022-07-22T02:35:05;14.68;;;11.43;;
16878;SDS011;8556;52.218;9.884;2022-07-22T02:37:32;15.90;;;11.20;;
16878;SDS011;8556;52.218;9.884;2022-07-22T02:39:59;16.15;;;11.55;;
16878;SDS011;8556;52.218;9.884;2022-07-22T02:42:26;14.98;;;10.95;;
16878;SDS011;8556;52.218;9.884;2022-07-22T02:44:52;14.70;;;10.05;;
16878;SDS011;8556;52.218;9.884;2022-07-22T02:47:21;13.48;;;10.65;;
16878;SDS011;8556;52.218;9.884;2022-07-22T02:49:47;15.60;;;10.98;;
16878;SDS011;8556;52.218;9.884;2022-07-22T02:52:14;14.57;;;10.35;;
16878;SDS011;8556;52.218;9.884;2022-07-22T02:54:41;13.57;;;10.48;;
16878;SDS011;8556;52.218;9.884;2022-07-22T02:57:08;13.85;;;9.98;;
16878;SDS011;8556;52.218;9.884;2022-07-22T02:59:35;13.45;;;9.43;;
16878;SDS011;8556;52.218;9.884;2022-07-22T03:02:02;13.10;;;9.20;;
16878;SDS011;8556;52.218;9.884;2022-07-22T03:04:30;11.88;;;8.52;;
16878;SDS011;8556;52.218;9.884;2022-07-22T03:06:57;15.93;;;9.35;;
16878;SDS011;8556;52.218;9.884;2022-07-22T03:09:24;13.52;;;9.07;;
16878;SDS011;8556;52.218;9.884;2022-07-22T03:11:51;15.00;;;9.45;;
16878;SDS011;8556;52.218;9.884;2022-07-22T03:14:18;14.15;;;9.20;;
16878;SDS011;8556;52.218;9.884;2022-07-22T03:16:45;14.57;;;9.13;;
16878;SDS011;8556;52.218;9.884;2022-07-22T03:19:13;14.00;;;9.50;;
16878;SDS011;8556;52.218;9.884;2022-07-22T03:21:41;14.57;;;9.18;;
16878;SDS011;8556;52.218;9.884;2022-07-22T03:24:08;11.48;;;7.55;;
16878;SDS011;8556;52.218;9.884;2022-07-22T03:26:35;10.93;;;6.95;;
16878;SDS011;8556;52.218;9.884;2022-07-22T03:29:02;11.15;;;6.70;;
16878;SDS011;8556;52.218;9.884;2022-07-22T03:31:28;8.73;;;6.00;;
16878;SDS011;8556;52.218;9.884;2022-07-22T03:33:55;10.30;;;6.10;;
16878;SDS011;8556;52.218;9.884;2022-07-22T03:36:22;9.18;;;6.20;;
16878;SDS011;8556;52.218;9.884;2022-07-22T03:38:50;8.60;;;6.05;;
16878;SDS011;8556;52.218;9.884;2022-07-22T03:41:17;9.63;;;5.90;;
16878;SDS011;8556;52.218;9.884;2022-07-22T03:43:44;12.88;;;6.50;;
16878;SDS011;8556;52.218;9.884;2022-07-22T03:46:12;9.02;;;6.07;;
16878;SDS011;8556;52.218;9.884;2022-07-22T03:48:38;11.23;;;6.50;;
16878;SDS011;8556;52.218;9.884;2022-07-22T03:51:05;10.63;;;6.45;;
16878;SDS011;8556;52.218;9.884;2022-07-22T03:53:32;11.45;;;6.65;;
16878;SDS011;8556;52.218;9.884;2022-07-22T03:56:01;11.05;;;7.05;;
16878;SDS011;8556;52.218;9.884;2022-07-22T03:58:28;10.57;;;7.50;;
16878;SDS011;8556;52.218;9.884;2022-07-22T04:00:55;11.20;;;7.55;;
16878;SDS011;8556;52.218;9.884;2022-07-22T04:03:21;9.77;;;7.47;;
16878;SDS011;8556;52.218;9.884;2022-07-22T04:05:48;11.52;;;7.45;;
16878;SDS011;8556;52.218;9.884;2022-07-22T04:08:16;14.35;;;9.13;;
16878;SDS011;8556;52.218;9.884;2022-07-22T04:10:43;12.68;;;8.55;;
16878;SDS011;8556;52.218;9.884;2022-07-22T04:13:11;12.93;;;8.02;;
16878;SDS011;8556;52.218;9.884;2022-07-22T04:15:38;11.52;;;7.85;;
16878;SDS011;8556;52.218;9.884;2022-07-22T04:18:05;9.10;;;6.95;;
16878;SDS011;8556;52.218;9.884;2022-07-22T04:20:31;11.25;;;7.50;;
16878;SDS011;8556;52.218;9.884;2022-07-22T04:22:58;11.13;;;7.88;;
16878;SDS011;8556;52.218;9.884;2022-07-22T04:25:25;12.32;;;8.02;;
16878;SDS011;8556;52.218;9.884;2022-07-22T04:27:52;10.15;;;7.78;;
16878;SDS011;8556;52.218;9.884;2022-07-22T04:30:21;9.77;;;7.55;;
16878;SDS011;8556;52.218;9.884;2022-07-22T04:32:47;11.02;;;7.95;;
16878;SDS011;8556;52.218;9.884;2022-07-22T04:35:14;9.77;;;7.60;;
16878;SDS011;8556;52.218;9.884;2022-07-22T04:37:41;8.95;;;7.40;;
16878;SDS011;8556;52.218;9.884;2022-07-22T04:40:09;11.38;;;7.57;;
16878;SDS011;8556;52.218;9.884;2022-07-22T04:42:36;8.95;;;7.10;;
16878;SDS011;8556;52.218;9.884;2022-07-22T04:45:03;9.85;;;7.05;;
16878;SDS011;8556;52.218;9.884;2022-07-22T04:47:32;10.75;;;6.40;;
16878;SDS011;8556;52.218;9.884;2022-07-22T04:49:59;8.02;;;6.40;;
16878;SDS011;8556;52.218;9.884;2022-07-22T04:52:26;8.15;;;6.43;;
16878;SDS011;8556;52.218;9.884;2022-07-22T04:54:52;7.78;;;6.18;;
16878;SDS011;8556;52.218;9.884;2022-07-22T04:57:19;8.52;;;6.30;;
16878;SDS011;8556;52.218;9.884;2022-07-22T04:59:46;8.68;;;6.00;;
16878;SDS011;8556;52.218;9.884;2022-07-22T05:02:13;7.30;;;5.50;;
16878;SDS011;8556;52.218;9.884;2022-07-22T05:04:41;7.30;;;5.47;;
16878;SDS011;8556;52.218;9.884;2022-07-22T05:07:08;6.60;;;4.90;;
16878;SDS011;8556;52.218;9.884;2022-07-22T05:09:35;8.93;;;6.25;;
16878;SDS011;8556;52.218;9.884;2022-07-22T05:12:02;6.93;;;5.10;;
16878;SDS011;8556;52.218;9.884;2022-07-22T05:14:29;5.97;;;4.80;;
16878;SDS011;8556;52.218;9.884;2022-07-22T05:16:56;9.50;;;5.28;;
16878;SDS011;8556;52.218;9.884;2022-07-22T05:19:23;7.10;;;4.65;;
16878;SDS011;8556;52.218;9.884;2022-07-22T05:21:51;9.43;;;5.00;;
16878;SDS011;8556;52.218;9.884;2022-07-22T05:24:17;5.68;;;4.78;;
16878;SDS011;8556;52.218;9.884;2022-07-22T05:26:44;6.25;;;4.60;;
16878;SDS011;8556;52.218;9.884;2022-07-22T05:29:11;5.28;;;4.43;;
16878;SDS011;8556;52.218;9.884;2022-07-22T05:31:38;6.57;;;4.70;;
16878;SDS011;8556;52.218;9.884;2022-07-22T05:34:05;5.82;;;4.50;;
16878;SDS011;8556;52.218;9.884;2022-07-22T05:36:32;5.72;;;4.60;;
16878;SDS011;8556;52.218;9.884;2022-07-22T05:39:00;8.57;;;4.90;;
16878;SDS011;8556;52.218;9.884;2022-07-22T05:41:27;6.70;;;5.15;;
16878;SDS011;8556;52.218;9.884;2022-07-22T05:43:54;7.63;;;5.15;;
16878;SDS011;8556;52.218;9.884;2022-07-22T05:46:21;5.75;;;4.97;;
16878;SDS011;8556;52.218;9.884;2022-07-22T05:48:48;6.93;;;5.13;;
16878;SDS011;8556;52.218;9.884;2022-07-22T05:51:15;6.93;;;5.10;;
16878;SDS011;8556;52.218;9.884;2022-07-22T05:53:42;6.90;;;5.18;;
16878;SDS011;8556;52.218;9.884;2022-07-22T05:56:10;6.30;;;4.45;;
16878;SDS011;8556;52.218;9.884;2022-07-22T05:58:38;6.75;;;4.35;;
16878;SDS011;8556;52.218;9.884;2022-07-22T06:01:05;5.40;;;4.30;;
16878;SDS011;8556;52.218;9.884;2022-07-22T06:03:32;8.88;;;4.15;;
16878;SDS011;8556;52.218;9.884;2022-07-22T06:05:59;10.43;;;6.60;;
16878;SDS011;8556;52.218;9.884;2022-07-22T06:08:27;5.47;;;3.95;;
16878;SDS011;8556;52.218;9.884;2022-07-22T06:10:54;8.18;;;4.40;;
16878;SDS011;8556;52.218;9.884;2022-07-22T06:13:22;5.28;;;3.90;;
16878;SDS011;8556;52.218;9.884;2022-07-22T06:15:49;4.65;;;3.80;;
16878;SDS011;8556;52.218;9.884;2022-07-22T06:18:16;4.55;;;3.53;;
16878;SDS011;8556;52.218;9.884;2022-07-22T06:20:43;4.22;;;3.40;;
16878;SDS011;8556;52.218;9.884;2022-07-22T06:23:10;4.50;;;3.80;;
16878;SDS011;8556;52.218;9.884;2022-07-22T06:25:37;8.20;;;4.18;;
16878;SDS011;8556;52.218;9.884;2022-07-22T06:28:04;10.90;;;4.10;;
16878;SDS011;8556;52.218;9.884;2022-07-22T06:30:32;7.22;;;3.83;;
16878;SDS011;8556;52.218;9.884;2022-07-22T06:32:59;5.60;;;3.45;;
16878;SDS011;8556;52.218;9.884;2022-07-22T06:35:26;5.13;;;3.55;;
16878;SDS011;8556;52.218;9.884;2022-07-22T06:37:53;7.05;;;3.33;;
16878;SDS011;8556;52.218;9.884;2022-07-22T06:40:20;4.22;;;3.40;;
16878;SDS011;8556;52.218;9.884;2022-07-22T06:42:47;3.70;;;3.35;;
16878;SDS011;8556;52.218;9.884;2022-07-22T06:45:14;5.22;;;2.90;;
16878;SDS011;8556;52.218;9.884;2022-07-22T06:47:42;8.65;;;3.35;;
16878;SDS011;8556;52.218;9.884;2022-07-22T06:50:09;6.05;;;4.05;;
16878;SDS011;8556;52.218;9.884;2022-07-22T06:52:38;7.38;;;4.05;;
16878;SDS011;8556;52.218;9.884;2022-07-22T06:55:05;7.55;;;3.53;;
16878;SDS011;8556;52.218;9.884;2022-07-22T06:57:33;6.70;;;3.72;;
16878;SDS011;8556;52.218;9.884;2022-07-22T07:00:00;7.90;;;3.92;;
16878;SDS011;8556;52.218;9.884;2022-07-22T07:02:27;4.93;;;3.88;;
16878;SDS011;8556;52.218;9.884;2022-07-22T07:04:55;7.50;;;4.38;;
16878;SDS011;8556;52.218;9.884;2022-07-22T07:07:22;10.18;;;5.45;;
16878;SDS011;8556;52.218;9.884;2022-07-22T07:09:48;7.38;;;4.30;;
16878;SDS011;8556;52.218;9.884;2022-07-22T07:12:15;5.95;;;4.05;;
16878;SDS011;8556;52.218;9.884;2022-07-22T07:14:42;7.90;;;4.50;;
16878;SDS011;8556;52.218;9.884;2022-07-22T07:17:09;5.05;;;4.07;;
16878;SDS011;8556;52.218;9.884;2022-07-22T07:19:36;9.45;;;4.70;;
16878;SDS011;8556;52.218;9.884;2022-07-22T07:22:04;7.85;;;4.18;;
16878;SDS011;8556;52.218;9.884;2022-07-22T07:24:31;8.35;;;3.88;;
16878;SDS011;8556;52.218;9.884;2022-07-22T07:26:57;8.50;;;4.32;;
16878;SDS011;8556;52.218;9.884;2022-07-22T07:29:24;9.55;;;4.15;;
16878;SDS011;8556;52.218;9.884;2022-07-22T07:31:51;7.53;;;4.72;;
16878;SDS011;8556;52.218;9.884;2022-07-22T07:34:18;7.95;;;4.38;;
16878;SDS011;8556;52.218;9.884;2022-07-22T07:36:45;6.85;;;4.60;;
16878;SDS011;8556;52.218;9.884;2022-07-22T07:39:13;5.95;;;4.90;;
16878;SDS011;8556;52.218;9.884;2022-07-22T07:41:40;6.05;;;4.30;;
16878;SDS011;8556;52.218;9.884;2022-07-22T07:44:07;8.02;;;4.22;;
16878;SDS011;8556;52.218;9.884;2022-07-22T07:46:34;13.18;;;4.85;;
16878;SDS011;8556;52.218;9.884;2022-07-22T07:49:01;5.00;;;4.25;;
16878;SDS011;8556;52.218;9.884;2022-07-22T07:51:28;5.43;;;4.20;;
16878;SDS011;8556;52.218;9.884;2022-07-22T07:53:55;5.70;;;3.88;;
16878;SDS011;8556;52.218;9.884;2022-07-22T07:56:23;5.45;;;4.70;;
16878;SDS011;8556;52.218;9.884;2022-07-22T07:58:50;5.72;;;3.55;;
16878;SDS011;8556;52.218;9.884;2022-07-22T08:01:17;3.83;;;3.45;;
16878;SDS011;8556;52.218;9.884;2022-07-22T08:03:44;6.25;;;2.92;;
16878;SDS011;8556;52.218;9.884;2022-07-22T08:06:11;4.32;;;2.78;;
16878;SDS011;8556;52.218;9.884;2022-07-22T08:08:38;3.72;;;3.10;;
16878;SDS011;8556;52.218;9.884;2022-07-22T08:11:04;4.25;;;2.65;;
16878;SDS011;8556;52.218;9.884;2022-07-22T08:13:33;4.95;;;2.80;;
16878;SDS011;8556;52.218;9.884;2022-07-22T08:15:59;2.95;;;2.65;;
16878;SDS011;8556;52.218;9.884;2022-07-22T08:18:27;5.03;;;2.75;;
16878;SDS011;8556;52.218;9.884;2022-07-22T08:20:55;3.55;;;2.58;;
16878;SDS011;8556;52.218;9.884;2022-07-22T08:23:22;4.78;;;2.80;;
16878;SDS011;8556;52.218;9.884;2022-07-22T08:25:49;2.60;;;2.22;;
16878;SDS011;8556;52.218;9.884;2022-07-22T08:28:16;3.63;;;2.20;;
16878;SDS011;8556;52.218;9.884;2022-07-22T08:30:45;3.72;;;1.80;;
16878;SDS011;8556;52.218;9.884;2022-07-22T08:33:12;2.95;;;2.63;;
16878;SDS011;8556;52.218;9.884;2022-07-22T08:35:39;6.95;;;3.58;;
16878;SDS011;8556;52.218;9.884;2022-07-22T08:38:05;4.70;;;3.08;;
16878;SDS011;8556;52.218;9.884;2022-07-22T08:40:33;5.55;;;3.33;;
16878;SDS011;8556;52.218;9.884;2022-07-22T08:43:00;6.35;;;3.60;;
16878;SDS011;8556;52.218;9.884;2022-07-22T08:45:28;3.88;;;3.42;;
16878;SDS011;8556;52.218;9.884;2022-07-22T08:47:56;5.82;;;3.25;;
16878;SDS011;8556;52.218;9.884;2022-07-22T08:50:27;7.13;;;3.30;;
16878;SDS011;8556;52.218;9.884;2022-07-22T08:52:55;4.95;;;3.60;;
16878;SDS011;8556;52.218;9.884;2022-07-22T08:55:22;4.35;;;3.20;;
16878;SDS011;8556;52.218;9.884;2022-07-22T08:57:48;3.42;;;3.05;;
16878;SDS011;8556;52.218;9.884;2022-07-22T09:00:16;3.42;;;2.90;;
16878;SDS011;8556;52.218;9.884;2022-07-22T09:02:45;7.38;;;3.58;;
16878;SDS011;8556;52.218;9.884;2022-07-22T09:05:13;5.28;;;3.03;;
16878;SDS011;8556;52.218;9.884;2022-07-22T09:07:42;4.20;;;2.60;;
16878;SDS011;8556;52.218;9.884;2022-07-22T09:10:10;2.38;;;2.17;;
16878;SDS011;8556;52.218;9.884;2022-07-22T09:12:49;4.25;;;2.78;;
16878;SDS011;8556;52.218;9.884;2022-07-22T09:15:24;4.28;;;2.55;;
16878;SDS011;8556;52.218;9.884;2022-07-22T09:17:52;4.80;;;2.33;;
16878;SDS011;8556;52.218;9.884;2022-07-22T09:20:21;3.40;;;2.50;;
16878;SDS011;8556;52.218;9.884;2022-07-22T09:22:48;3.35;;;2.33;;
16878;SDS011;8556;52.218;9.884;2022-07-22T09:25:21;5.68;;;2.53;;
16878;SDS011;8556;52.218;9.884;2022-07-22T09:27:53;3.38;;;2.78;;
16878;SDS011;8556;52.218;9.884;2022-07-22T09:30:23;3.88;;;2.60;;
16878;SDS011;8556;52.218;9.884;2022-07-22T09:32:51;4.38;;;2.72;;
16878;SDS011;8556;52.218;9.884;2022-07-22T09:35:20;4.95;;;3.08;;
16878;SDS011;8556;52.218;9.884;2022-07-22T09:37:51;4.30;;;2.80;;
16878;SDS011;8556;52.218;9.884;2022-07-22T09:40:19;3.33;;;2.60;;
16878;SDS011;8556;52.218;9.884;2022-07-22T09:42:48;4.53;;;2.80;;
16878;SDS011;8556;52.218;9.884;2022-07-22T09:45:16;3.85;;;2.80;;
16878;SDS011;8556;52.218;9.884;2022-07-22T09:47:44;4.43;;;2.83;;
16878;SDS011;8556;52.218;9.884;2022-07-22T09:50:16;2.90;;;2.33;;
16878;SDS011;8556;52.218;9.884;2022-07-22T09:52:45;4.15;;;2.70;;
16878;SDS011;8556;52.218;9.884;2022-07-22T09:55:14;3.20;;;2.10;;
16878;SDS011;8556;52.218;9.884;2022-07-22T09:57:41;2.42;;;2.05;;
16878;SDS011;8556;52.218;9.884;2022-07-22T10:00:09;3.47;;;2.40;;
16878;SDS011;8556;52.218;9.884;2022-07-22T10:02:38;3.90;;;2.55;;
16878;SDS011;8556;52.218;9.884;2022-07-22T10:05:08;3.13;;;2.83;;
16878;SDS011;8556;52.218;9.884;2022-07-22T10:07:38;3.13;;;2.83;;
16878;SDS011;8556;52.218;9.884;2022-07-22T10:10:09;3.67;;;2.47;;
16878;SDS011;8556;52.218;9.884;2022-07-22T10:12:38;3.45;;;2.35;;
16878;SDS011;8556;52.218;9.884;2022-07-22T10:15:07;3.15;;;2.67;;
16878;SDS011;8556;52.218;9.884;2022-07-22T10:17:36;3.17;;;2.80;;
16878;SDS011;8556;52.218;9.884;2022-07-22T10:20:04;4.60;;;3.58;;
16878;SDS011;8556;52.218;9.884;2022-07-22T10:25:32;4.88;;;2.90;;
16878;SDS011;8556;52.218;9.884;2022-07-22T10:28:20;2.03;;;1.70;;
16878;SDS011;8556;52.218;9.884;2022-07-22T10:30:49;3.47;;;2.03;;
16878;SDS011;8556;52.218;9.884;2022-07-22T10:33:16;2.05;;;1.95;;
16878;SDS011;8556;52.218;9.884;2022-07-22T10:35:55;2.25;;;2.05;;
16878;SDS011;8556;52.218;9.884;2022-07-22T10:38:23;2.67;;;2.47;;
16878;SDS011;8556;52.218;9.884;2022-07-22T10:40:53;2.88;;;2.65;;
16878;SDS011;8556;52.218;9.884;2022-07-22T10:43:22;2.35;;;2.15;;
16878;SDS011;8556;52.218;9.884;2022-07-22T10:45:53;2.75;;;2.13;;
16878;SDS011;8556;52.218;9.884;2022-07-22T10:48:22;4.88;;;2.58;;
16878;SDS011;8556;52.218;9.884;2022-07-22T10:51:04;2.47;;;1.98;;
16878;SDS011;8556;52.218;9.884;2022-07-22T10:53:44;3.75;;;2.70;;
16878;SDS011;8556;52.218;9.884;2022-07-22T10:56:22;2.25;;;2.03;;
16878;SDS011;8556;52.218;9.884;2022-07-22T10:58:55;1.92;;;1.83;;
16878;SDS011;8556;52.218;9.884;2022-07-22T11:01:34;2.67;;;2.28;;
16878;SDS011;8556;52.218;9.884;2022-07-22T11:04:08;2.45;;;2.00;;
16878;SDS011;8556;52.218;9.884;2022-07-22T11:06:37;4.50;;;2.40;;
16878;SDS011;8556;52.218;9.884;2022-07-22T11:09:06;3.10;;;2.03;;
16878;SDS011;8556;52.218;9.884;2022-07-22T11:11:37;2.58;;;2.35;;
16878;SDS011;8556;52.218;9.884;2022-07-22T11:14:20;3.78;;;2.63;;
16878;SDS011;8556;52.218;9.884;2022-07-22T11:16:52;3.28;;;2.75;;
16878;SDS011;8556;52.218;9.884;2022-07-22T11:19:21;5.05;;;2.30;;
16878;SDS011;8556;52.218;9.884;2022-07-22T11:21:50;4.47;;;2.80;;
16878;SDS011;8556;52.218;9.884;2022-07-22T11:24:18;3.33;;;3.03;;
16878;SDS011;8556;52.218;9.884;2022-07-22T11:26:47;5.28;;;3.28;;
16878;SDS011;8556;52.218;9.884;2022-07-22T11:29:16;5.18;;;3.28;;
16878;SDS011;8556;52.218;9.884;2022-07-22T11:31:44;6.35;;;3.85;;
16878;SDS011;8556;52.218;9.884;2022-07-22T11:34:12;3.47;;;3.17;;
16878;SDS011;8556;52.218;9.884;2022-07-22T11:36:41;6.18;;;3.20;;
16878;SDS011;8556;52.218;9.884;2022-07-22T11:39:10;5.65;;;3.35;;
16878;SDS011;8556;52.218;9.884;2022-07-22T11:41:38;8.75;;;3.67;;
16878;SDS011;8556;52.218;9.884;2022-07-22T11:44:07;7.72;;;3.92;;
16878;SDS011;8556;52.218;9.884;2022-07-22T11:46:35;5.88;;;3.78;;
16878;SDS011;8556;52.218;9.884;2022-07-22T11:49:03;5.43;;;3.60;;
16878;SDS011;8556;52.218;9.884;2022-07-22T11:51:30;5.43;;;3.30;;
16878;SDS011;8556;52.218;9.884;2022-07-22T11:53:59;6.13;;;3.55;;
16878;SDS011;8556;52.218;9.884;2022-07-22T11:56:26;6.03;;;3.47;;
16878;SDS011;8556;52.218;9.884;2022-07-22T11:58:53;5.35;;;3.38;;
16878;SDS011;8556;52.218;9.884;2022-07-22T12:01:23;6.07;;;3.97;;
16878;SDS011;8556;52.218;9.884;2022-07-22T12:03:53;8.95;;;3.60;;
16878;SDS011;8556;52.218;9.884;2022-07-22T12:06:22;8.68;;;3.78;;
16878;SDS011;8556;52.218;9.884;2022-07-22T12:08:51;9.55;;;3.50;;
16878;SDS011;8556;52.218;9.884;2022-07-22T12:11:20;5.20;;;3.30;;
16878;SDS011;8556;52.218;9.884;2022-07-22T12:13:50;7.80;;;4.00;;
16878;SDS011;8556;52.218;9.884;2022-07-22T12:16:18;7.20;;;3.80;;
16878;SDS011;8556;52.218;9.884;2022-07-22T12:18:52;5.68;;;3.47;;
16878;SDS011;8556;52.218;9.884;2022-07-22T12:21:21;5.53;;;3.50;;
16878;SDS011;8556;52.218;9.884;2022-07-22T12:23:49;8.75;;;4.03;;
16878;SDS011;8556;52.218;9.884;2022-07-22T12:26:40;7.15;;;4.03;;
16878;SDS011;8556;52.218;9.884;2022-07-22T12:29:19;6.63;;;3.65;;
16878;SDS011;8556;52.218;9.884;2022-07-22T12:31:48;8.23;;;3.70;;
16878;SDS011;8556;52.218;9.884;2022-07-22T12:34:23;4.47;;;3.22;;
16878;SDS011;8556;52.218;9.884;2022-07-22T12:36:56;5.80;;;3.20;;
16878;SDS011;8556;52.218;9.884;2022-07-22T12:39:23;5.65;;;3.40;;
16878;SDS011;8556;52.218;9.884;2022-07-22T12:41:50;5.35;;;3.70;;
16878;SDS011;8556;52.218;9.884;2022-07-22T12:44:20;7.32;;;3.80;;
16878;SDS011;8556;52.218;9.884;2022-07-22T12:46:48;10.50;;;7.85;;
16878;SDS011;8556;52.218;9.884;2022-07-22T12:49:20;7.70;;;4.30;;
16878;SDS011;8556;52.218;9.884;2022-07-22T12:54:34;9.15;;;3.47;;
16878;SDS011;8556;52.218;9.884;2022-07-22T12:57:02;4.10;;;3.42;;
16878;SDS011;8556;52.218;9.884;2022-07-22T12:59:30;7.18;;;4.00;;
16878;SDS011;8556;52.218;9.884;2022-07-22T13:01:57;8.05;;;3.95;;
16878;SDS011;8556;52.218;9.884;2022-07-22T13:04:26;6.72;;;4.15;;
16878;SDS011;8556;52.218;9.884;2022-07-22T13:06:53;6.95;;;4.10;;
16878;SDS011;8556;52.218;9.884;2022-07-22T13:09:20;5.93;;;4.10;;
16878;SDS011;8556;52.218;9.884;2022-07-22T13:11:47;8.02;;;4.05;;
16878;SDS011;8556;52.218;9.884;2022-07-22T13:14:14;6.43;;;3.45;;
16878;SDS011;8556;52.218;9.884;2022-07-22T13:16:41;7.20;;;4.00;;
16878;SDS011;8556;52.218;9.884;2022-07-22T13:19:08;6.78;;;4.18;;
16878;SDS011;8556;52.218;9.884;2022-07-22T13:21:36;5.10;;;3.95;;
16878;SDS011;8556;52.218;9.884;2022-07-22T13:24:04;7.07;;;4.25;;
16878;SDS011;8556;52.218;9.884;2022-07-22T13:26:31;5.93;;;3.80;;
16878;SDS011;8556;52.218;9.884;2022-07-22T13:28:58;3.85;;;3.40;;
16878;SDS011;8556;52.218;9.884;2022-07-22T13:31:25;4.45;;;3.63;;
16878;SDS011;8556;52.218;9.884;2022-07-22T13:33:52;5.50;;;3.65;;
16878;SDS011;8556;52.218;9.884;2022-07-22T13:36:19;5.53;;;4.13;;
16878;SDS011;8556;52.218;9.884;2022-07-22T13:38:49;8.27;;;3.50;;
16878;SDS011;8556;52.218;9.884;2022-07-22T13:41:17;4.05;;;3.30;;
16878;SDS011;8556;52.218;9.884;2022-07-22T13:43:44;4.00;;;3.03;;
16878;SDS011;8556;52.218;9.884;2022-07-22T13:46:14;5.00;;;3.25;;
16878;SDS011;8556;52.218;9.884;2022-07-22T13:48:41;6.38;;;3.65;;
16878;SDS011;8556;52.218;9.884;2022-07-22T13:51:09;5.80;;;3.53;;
16878;SDS011;8556;52.218;9.884;2022-07-22T13:53:35;4.47;;;3.60;;
16878;SDS011;8556;52.218;9.884;2022-07-22T13:56:04;5.43;;;3.50;;
16878;SDS011;8556;52.218;9.884;2022-07-22T13:58:31;5.82;;;3.75;;
16878;SDS011;8556;52.218;9.884;2022-07-22T14:00:58;5.40;;;3.30;;
16878;SDS011;8556;52.218;9.884;2022-07-22T14:03:26;4.22;;;3.42;;
16878;SDS011;8556;52.218;9.884;2022-07-22T14:05:53;10.52;;;3.85;;
16878;SDS011;8556;52.218;9.884;2022-07-22T14:08:20;4.93;;;3.70;;
16878;SDS011;8556;52.218;9.884;2022-07-22T14:10:47;5.57;;;3.10;;
16878;SDS011;8556;52.218;9.884;2022-07-22T14:13:16;5.78;;;4.05;;
16878;SDS011;8556;52.218;9.884;2022-07-22T14:15:43;6.78;;;4.55;;
16878;SDS011;8556;52.218;9.884;2022-07-22T14:18:09;5.45;;;3.60;;
16878;SDS011;8556;52.218;9.884;2022-07-22T14:20:36;8.07;;;4.28;;
16878;SDS011;8556;52.218;9.884;2022-07-22T14:23:05;6.97;;;3.90;;
16878;SDS011;8556;52.218;9.884;2022-07-22T14:25:34;4.30;;;3.67;;
16878;SDS011;8556;52.218;9.884;2022-07-22T14:28:02;8.27;;;3.60;;
16878;SDS011;8556;52.218;9.884;2022-07-22T14:30:30;10.02;;;3.50;;
16878;SDS011;8556;52.218;9.884;2022-07-22T14:32:57;8.25;;;3.85;;
16878;SDS011;8556;52.218;9.884;2022-07-22T14:35:24;5.18;;;3.65;;
16878;SDS011;8556;52.218;9.884;2022-07-22T14:37:51;5.65;;;3.25;;
16878;SDS011;8556;52.218;9.884;2022-07-22T14:40:18;4.65;;;3.35;;
16878;SDS011;8556;52.218;9.884;2022-07-22T14:42:45;6.40;;;3.75;;
16878;SDS011;8556;52.218;9.884;2022-07-22T14:45:11;7.47;;;4.00;;
16878;SDS011;8556;52.218;9.884;2022-07-22T14:47:40;9.32;;;3.90;;
16878;SDS011;8556;52.218;9.884;2022-07-22T14:50:07;7.13;;;3.58;;
16878;SDS011;8556;52.218;9.884;2022-07-22T14:52:34;6.15;;;3.63;;
16878;SDS011;8556;52.218;9.884;2022-07-22T14:55:01;5.97;;;3.45;;
16878;SDS011;8556;52.218;9.884;2022-07-22T14:57:28;4.45;;;3.72;;
16878;SDS011;8556;52.218;9.884;2022-07-22T14:59:55;6.55;;;4.05;;
16878;SDS011;8556;52.218;9.884;2022-07-22T15:02:22;4.93;;;3.80;;
16878;SDS011;8556;52.218;9.884;2022-07-22T15:04:52;5.65;;;3.88;;